Pepin, Wisconsin
Current Conditions -  °F | °C
As of 2:10 AM on Monday 22 Dec 2014 (Local Time) from KRGK Reporting Station
Haze Haze  
Wind Chill: 30°   Ceiling: 800
Heat Index: 37°   Visibility: 3mi
Dew Point: 36°   Wind: 12mph
Humidity: 93%   Direction: 160°SSE
Pressure: 29.74"   Gusts: 18mph
Location:  44.44°N, 92.15°W
Report Text: KRGK 220810Z AUTO 16010G16KT 3SM BR OVC008 03/02 A2974 RMK AO2
Loading
Personal Weather Stations






























Interactive Weather Map New forecast layout! Learn more

10-Day Weather Forecast

Advertisements
Track Severe Weather on mobile